Latest Weather Observations for Richmond

IDN60801

Issued at 9:32 am EST Monday 24 April 2017 (issued every 30 minutes, with the page automatically refreshed every 10 minutes)

About weather observations | Map of weather stations | Latest weather observations for NSW | Other Formats
Station Details ID: 067105 Name: RICHMOND RAAF Lat: -33.60 Lon: 150.78 Height: 19.0 m
Data from the previous 72 hours. | See also: Recent months at Richmond
Date/Time
EST
Temp
°C
App
Temp
°C
Dew
Point
°C
Rel
Hum
%
Delta-T
°C
Wind Press
QNH
hPa
Press
MSL
hPa
Rain since
9am
mm
Dir  Spd
km/h
Gust
km/h
Spd
kts
Gust
kts
24/09:30am 18.5 19.7 16.8 90 1.0 NE 6 9 3 5 1022.7 1022.7 0.0
24/09:26am 18.2 19.4 16.9 92 0.8 ENE 6 9 3 5 1022.7 1022.7 0.0
24/09:16am 17.8 19.4 17.0 95 0.5 NE 4 7 2 4 1022.8 1022.8 0.0
24/09:00am 16.4 17.3 16.2 99 0.1 E 6 9 3 5 1022.9 1022.9 0.0
24/08:55am 16.0 16.6 15.8 99 0.1 ENE 7 11 4 6 1022.9 1022.9 0.0
24/08:52am 16.2 16.8 15.9 98 0.2 ENE 7 11 4 6 1022.9 1022.9 0.0
24/08:51am 16.1 16.7 15.9 99 0.1 ENE 7 11 4 6 1022.9 1022.9 0.0
24/08:38am 16.1 17.3 15.9 99 0.1 NE 4 7 2 4 1023.0 1023.0 0.0
24/08:30am 15.9 17.8 15.7 99 0.1 CALM 0 0 0 0 1023.0 1023.0 0.0
24/08:00am 14.4 15.7 14.2 99 0.1 CALM 0 0 0 0 1023.1 1023.1 0.0
24/07:30am 13.9 15.1 13.7 99 0.1 CALM 0 0 0 0 1022.9 1022.9 0.0
24/07:00am 13.3 14.3 13.1 99 0.1 CALM 0 0 0 0 1022.5 1022.5 0.0
24/06:30am 13.6 14.7 13.4 99 0.1 CALM 0 0 0 0 1022.4 1022.4 0.0
24/06:00am 13.0 13.9 12.8 99 0.1 CALM 0 0 0 0 1022.1 1022.1 0.0
24/05:43am 13.1 14.0 12.9 99 0.1 CALM 0 0 0 0 1022.1 1022.1 0.0
24/05:35am 13.2 14.1 13.0 99 0.1 CALM 0 0 0 0 1022.1 1022.1 0.0
24/05:30am 13.1 14.0 12.9 99 0.1 CALM 0 0 0 0 1022.1 1022.1 0.0
24/05:27am 13.1 14.0 12.9 99 0.1 CALM 0 0 0 0 1022.2 1022.2 0.0
24/05:00am 13.0 13.9 12.8 99 0.1 CALM 0 0 0 0 1021.8 1021.8 0.0
24/04:54am 13.4 14.4 13.2 99 0.1 CALM 0 0 0 0 1021.7 1021.7 0.0
24/04:43am 13.2 14.1 13.0 99 0.1 CALM 0 0 0 0 1021.7 1021.7 0.0
24/04:42am 13.2 14.1 13.0 99 0.1 CALM 0 0 0 0 1021.7 1021.7 0.0
24/04:30am 13.6 14.7 13.4 99 0.1 CALM 0 0 0 0 1021.7 1021.7 0.0
24/04:14am 13.4 14.4 13.2 99 0.1 CALM 0 0 0 0 1021.5 1021.5 0.0
24/04:00am 13.4 14.4 13.2 99 0.1 CALM 0 0 0 0 1021.5 1021.5 0.0
24/03:53am 13.5 14.5 13.3 99 0.1 CALM 0 0 0 0 1021.5 1021.5 0.0
24/03:30am 13.6 14.7 13.4 99 0.1 CALM 0 0 0 0 1021.5 1021.5 0.0
24/03:00am 13.7 14.8 13.5 99 0.1 CALM 0 0 0 0 1021.7 1021.7 0.0
24/02:47am 13.9 15.0 13.6 98 0.2 CALM 0 0 0 0 1021.7 1021.7 0.0
24/02:43am 14.4 15.7 14.1 98 0.2 CALM 0 0 0 0 1021.8 1021.8 0.0
24/02:41am 14.5 15.8 14.2 98 0.2 CALM 0 0 0 0 1021.8 1021.8 0.0
24/02:30am 14.9 16.4 14.7 99 0.1 CALM 0 0 0 0 1021.9 1021.9 0.0
24/02:08am 14.3 15.6 14.0 98 0.2 CALM 0 0 0 0 1022.2 1022.2 0.0
24/02:00am 14.9 16.4 14.6 98 0.2 CALM 0 0 0 0 1022.2 1022.2 0.0
24/01:30am 14.9 16.4 14.6 98 0.2 CALM 0 0 0 0 1022.4 1022.4 0.0
24/01:00am 15.1 16.6 14.6 97 0.3 CALM 0 0 0 0 1022.5 1022.5 0.0
24/12:30am 16.1 17.9 15.6 97 0.3 CALM 0 0 0 0 1022.9 1022.9 0.0
24/12:00am 16.9 18.9 16.1 95 0.5 CALM 0 0 0 0 1023.0 1023.0 0.0
 
Date/Time
EST
Temp
°C
App
Temp
°C
Dew
Point
°C
Rel
Hum
%
Delta-T
°C
Wind Press
QNH
hPa
Press
MSL
hPa
Rain since
9am
mm
Dir  Spd
km/h
Gust
km/h
Spd
kts
Gust
kts
23/11:30pm 16.6 18.5 15.8 95 0.5 CALM 0 0 0 0 1023.1 1023.1 0.0
23/11:00pm 16.7 18.5 15.4 92 0.8 CALM 0 0 0 0 1023.2 1023.2 0.0
23/10:30pm 17.5 19.4 15.7 89 1.1 CALM 0 7 0 4 1023.4 1023.4 0.0
23/10:00pm 18.6 20.8 16.6 88 1.2 CALM 0 0 0 0 1023.5 1023.5 0.0
23/09:30pm 18.5 20.7 16.5 88 1.2 CALM 0 0 0 0 1023.5 1023.5 0.0
23/09:00pm 18.8 19.6 16.4 86 1.4 SW 7 7 4 4 1023.5 1023.5 0.0
23/08:30pm 19.3 20.2 16.5 84 1.7 SW 7 9 4 5 1023.3 1023.3 0.0
23/08:00pm 20.1 21.0 16.7 81 2.0 SW 7 9 4 5 1023.2 1023.2 0.0
23/07:30pm 20.5 21.3 16.3 77 2.5 SE 7 9 4 5 1022.9 1022.9 0.0
23/07:00pm 20.6 21.0 16.2 76 2.6 ESE 9 11 5 6 1022.4 1022.4 0.0
23/06:30pm 21.2 20.8 16.2 73 3.0 SE 13 17 7 9 1022.0 1022.0 0.0
23/06:00pm 21.5 20.3 16.0 71 3.3 SSE 17 19 9 10 1021.4 1021.4 0.0
23/05:30pm 22.0 21.8 15.6 67 3.8 SSE 11 17 6 9 1021.0 1021.0 0.0
23/05:00pm 22.7 23.3 13.2 55 5.5 NW 2 7 1 4 1020.5 1020.5 0.0
23/04:30pm 25.2 26.0 12.4 45 7.4 CALM 0 0 0 0 1020.3 1020.3 0.0
23/04:00pm 25.5 24.9 12.4 44 7.5 WNW 7 9 4 5 1020.2 1020.2 0.0
23/03:30pm 25.2 24.6 12.4 45 7.4 SW 7 9 4 5 1020.1 1020.1 0.0
23/03:00pm 25.7 25.4 13.2 46 7.3 W 7 11 4 6 1020.4 1020.4 0.0
23/02:30pm 25.3 24.6 13.2 47 7.1 N 9 11 5 6 1020.5 1020.5 0.0
23/02:00pm 25.2 24.9 13.4 48 6.9 NNW 7 13 4 7 1020.7 1020.7 0.0
23/01:30pm 25.0 24.8 13.5 48 6.7 NW 7 11 4 6 1020.8 1020.8 0.0
23/01:00pm 24.5 24.1 14.0 52 6.2 NE 9 17 5 9 1021.2 1021.2 0.0
23/12:30pm 25.0 25.8 15.9 57 5.5 NNE 6 11 3 6 1021.6 1021.6 0.0
23/12:00pm 23.4 24.3 14.1 56 5.4 NE 2 9 1 5 1022.2 1022.2 0.0
23/11:30am 22.6 23.3 16.2 67 3.9 NW 7 9 4 5 1022.6 1022.6 0.0
23/11:00am 22.0 23.1 16.5 71 3.3 E 6 11 3 6 1023.3 1023.3 0.0
23/10:30am 20.6 21.3 16.0 75 2.8 E 7 13 4 7 1023.8 1023.8 0.0
23/10:00am 19.9 21.3 15.3 75 2.7 ENE 2 7 1 4 1024.0 1024.0 0.0
23/09:30am 17.8 18.7 14.1 79 2.1 ESE 2 7 1 4 1024.2 1024.2 0.0
23/09:00am 17.2 18.2 14.3 83 1.7 N 2 7 1 4 1024.2 1024.2 0.0
23/08:37am 15.9 17.6 15.1 95 0.5 CALM 0 0 0 0 1024.2 1024.2 0.0
23/08:32am 15.7 17.5 15.4 98 0.2 CALM 0 0 0 0 1024.2 1024.2 0.0
23/08:30am 15.3 16.9 15.0 98 0.2 CALM 0 0 0 0 1024.2 1024.2 0.0
23/08:12am 14.2 14.3 14.0 99 0.1 N 6 7 3 4 1024.1 1024.1 0.0
23/08:00am 14.1 14.6 13.9 99 0.1 NE 4 9 2 5 1024.1 1024.1 0.0
23/07:56am 14.0 14.8 13.8 99 0.1 ENE 2 7 1 4 1024.1 1024.1 0.0
23/07:31am 13.5 14.5 13.3 99 0.1 CALM 0 0 0 0 1023.9 1023.9 0.0
23/07:30am 13.6 14.7 13.4 99 0.1 CALM 0 0 0 0 1023.9 1023.9 0.0
23/07:29am 13.3 14.3 13.1 99 0.1 CALM 0 0 0 0 1023.9 1023.9 0.0
23/07:00am 11.9 12.4 11.7 99 0.1 CALM 0 0 0 0 1023.6 1023.6 0.0
23/06:30am 11.5 11.9 11.3 99 0.1 CALM 0 4 0 2 1023.3 1023.3 0.0
23/06:00am 11.4 11.8 11.2 99 0.1 CALM 0 0 0 0 1023.0 1023.0 0.0
23/05:30am 11.8 12.3 11.6 99 0.1 CALM 0 0 0 0 1022.9 1022.9 0.0
23/05:00am 11.8 12.3 11.6 99 0.1 CALM 0 0 0 0 1022.5 1022.5 0.0
23/04:56am 11.9 12.4 11.7 99 0.1 CALM 0 0 0 0 1022.5 1022.5 0.0
23/04:48am 12.2 12.8 12.0 99 0.1 CALM 0 0 0 0 1022.4 1022.4 0.0
23/04:30am 12.6 13.4 12.4 99 0.1 CALM 0 0 0 0 1022.3 1022.3 0.0
23/04:01am 12.7 13.5 12.5 99 0.1 CALM 0 0 0 0 1022.3 1022.3 0.0
23/04:00am 12.8 13.6 12.6 99 0.1 CALM 0 0 0 0 1022.3 1022.3 0.0
23/03:32am 12.6 13.4 12.4 99 0.1 CALM 0 0 0 0 1022.3 1022.3 0.0
23/03:30am 12.6 13.4 12.4 99 0.1 CALM 0 0 0 0 1022.2 1022.2 0.0
23/03:00am 13.1 13.3 12.9 99 0.1 NW 4 7 2 4 1022.3 1022.3 0.0
23/02:55am 13.2 12.8 13.0 99 0.1 NNW 7 7 4 4 1022.4 1022.4 0.0
23/02:46am 13.5 13.8 13.3 99 0.1 NNW 4 9 2 5 1022.4 1022.4 0.0
23/02:45am 13.5 13.8 13.3 99 0.1 NNW 4 9 2 5 1022.4 1022.4 0.0
23/02:38am 13.6 14.3 13.4 99 0.1 SSW 2 6 1 3 1022.5 1022.5 0.0
23/02:34am 13.5 14.2 13.3 99 0.1 SSW 2 6 1 3 1022.6 1022.6 0.0
23/02:30am 13.3 13.5 13.1 99 0.1 SSW 4 7 2 4 1022.6 1022.6 0.0
23/02:22am 13.3 13.5 13.1 99 0.1 WSW 4 7 2 4 1022.7 1022.7 0.0
23/02:02am 14.0 15.2 13.8 99 0.1 CALM 0 0 0 0 1022.9 1022.9 0.0
23/02:00am 13.6 14.7 13.4 99 0.1 CALM 0 0 0 0 1022.9 1022.9 0.0
23/01:47am 13.9 15.1 13.7 99 0.1 CALM 0 0 0 0 1023.0 1023.0 0.0
23/01:44am 14.0 15.2 13.8 99 0.1 CALM 0 0 0 0 1023.0 1023.0 0.0
23/01:30am 13.8 14.9 13.6 99 0.1 CALM 0 0 0 0 1023.0 1023.0 0.0
23/01:00am 14.4 15.7 14.2 99 0.1 CALM 0 0 0 0 1023.1 1023.1 0.0
23/12:30am 14.7 16.1 14.5 99 0.1 CALM 0 0 0 0 1023.3 1023.3 0.0
23/12:00am 14.3 14.8 14.0 98 0.2 NNW 4 6 2 3 1023.3 1023.3 0.0
 
Date/Time
EST
Temp
°C
App
Temp
°C
Dew
Point
°C
Rel
Hum
%
Delta-T
°C
Wind Press
QNH
hPa
Press
MSL
hPa
Rain since
9am
mm
Dir  Spd
km/h
Gust
km/h
Spd
kts
Gust
kts
22/11:50pm 14.5 14.7 14.3 99 0.1 NNW 6 7 3 4 1023.3 1023.3 0.0
22/11:41pm 15.0 16.2 14.8 99 0.1 NW 2 7 1 4 1023.4 1023.4 0.0
22/11:30pm 15.4 17.1 15.2 99 0.1 CALM 0 0 0 0 1023.3 1023.3 0.0
22/11:29pm 15.4 17.1 15.2 99 0.1 CALM 0 0 0 0 1023.3 1023.3 0.0
22/11:00pm 15.6 17.3 15.3 98 0.2 CALM 0 0 0 0 1023.4 1023.4 0.0
22/10:30pm 15.2 15.7 14.9 98 0.2 W 6 7 3 4 1023.5 1023.5 0.0
22/10:00pm 16.3 17.2 16.1 99 0.1 NW 6 7 3 4 1023.5 1023.5 0.0
22/09:30pm 16.7 17.7 16.4 98 0.2 NNW 6 7 3 4 1023.4 1023.4 0.0
22/09:00pm 17.3 19.6 16.8 97 0.3 CALM 0 0 0 0 1023.4 1023.4 0.0
22/08:30pm 17.8 20.2 17.0 95 0.5 CALM 0 0 0 0 1023.5 1023.5 0.0
22/08:00pm 18.2 20.7 17.2 94 0.6 CALM 0 0 0 0 1023.4 1023.4 0.0
22/07:30pm 18.5 21.0 17.2 92 0.8 CALM 0 0 0 0 1023.3 1023.3 0.0
22/07:00pm 19.2 21.7 17.3 89 1.2 CALM 0 0 0 0 1023.1 1023.1 0.0
22/06:30pm 19.4 21.9 17.2 87 1.3 CALM 0 0 0 0 1022.9 1022.9 0.0
22/06:00pm 19.6 21.9 16.8 84 1.7 CALM 0 0 0 0 1022.7 1022.7 0.0
22/05:30pm 20.5 22.9 16.9 80 2.2 CALM 0 0 0 0 1022.6 1022.6 0.0
22/05:00pm 21.4 22.6 16.8 75 2.8 WSW 6 7 3 4 1022.5 1022.5 0.0
22/04:30pm 21.7 22.5 16.4 72 3.2 WNW 7 11 4 6 1022.4 1022.4 0.0
22/04:00pm 22.0 22.9 16.5 71 3.3 WNW 7 9 4 5 1022.3 1022.3 0.0
22/03:30pm 22.2 22.9 16.0 68 3.7 NNW 7 9 4 5 1022.2 1022.2 0.0
22/03:00pm 22.1 22.9 15.9 68 3.7 NNW 6 7 3 4 1022.1 1022.1 0.0
22/02:30pm 22.2 22.8 15.8 67 3.8 NNE 7 9 4 5 1022.2 1022.2 0.0
22/02:00pm 22.5 23.1 15.8 66 4.0 NE 7 11 4 6 1022.4 1022.4 0.0
22/01:30pm 22.6 23.3 15.7 65 4.1 ESE 6 9 3 5 1022.6 1022.6 0.0
22/01:00pm 23.4 23.7 16.0 63 4.5 NE 9 13 5 7 1023.0 1023.0 0.0
22/12:30pm 23.1 23.2 15.4 62 4.6 ESE 9 13 5 7 1023.4 1023.4 0.0
22/12:00pm 22.3 22.8 15.6 66 4.0 E 7 11 4 6 1024.1 1024.1 0.0
22/11:30am 21.2 22.8 16.0 72 3.1 N 2 6 1 3 1024.6 1024.6 0.0
22/11:00am 20.1 20.9 15.9 77 2.5 NNW 6 9 3 5 1025.1 1025.1 0.0
22/10:30am 19.1 20.2 16.5 85 1.6 NNE 6 11 3 6 1025.5 1025.5 0.0
22/10:00am 18.7 19.8 16.7 88 1.2 SW 6 11 3 6 1025.7 1025.7 0.0
22/09:30am 18.2 20.7 17.2 94 0.6 CALM 0 0 0 0 1025.8 1025.8 0.0
22/09:00am 17.2 18.8 16.9 98 0.2 NNE 4 7 2 4 1025.8 1025.8 0.0
22/08:30am 16.7 18.5 16.5 99 0.1 NE 2 7 1 4 1025.9 1025.9 0.0
22/08:00am 16.4 17.3 16.2 99 0.1 SSE 6 9 3 5 1025.5 1025.5 0.0
22/07:30am 15.9 17.0 15.6 98 0.2 NNW 4 9 2 5 1025.2 1025.2 0.0
22/07:00am 15.9 16.5 15.7 99 0.1 SE 7 9 4 5 1025.1 1025.1 0.0
22/06:30am 15.4 17.1 15.1 98 0.2 CALM 0 0 0 0 1024.9 1024.9 0.0
22/06:00am 15.4 17.1 15.2 99 0.1 CALM 0 0 0 0 1024.9 1024.9 0.0
22/05:30am 15.3 17.0 15.1 99 0.1 CALM 0 0 0 0 1024.8 1024.8 0.0
22/05:00am 15.6 17.4 15.4 99 0.1 CALM 0 0 0 0 1024.6 1024.6 0.0
22/04:30am 15.9 17.8 15.7 99 0.1 CALM 0 0 0 0 1024.4 1024.4 0.0
22/04:00am 16.0 17.9 15.7 98 0.2 CALM 0 0 0 0 1024.3 1024.3 0.0
22/03:30am 15.9 17.8 15.7 99 0.1 CALM 0 0 0 0 1024.1 1024.1 0.0
22/03:00am 15.7 17.5 15.4 98 0.2 CALM 0 0 0 0 1024.2 1024.2 0.0
22/02:30am 15.7 16.7 15.4 98 0.2 NNW 4 9 2 5 1024.5 1024.5 0.0
22/02:00am 16.0 17.5 15.7 98 0.2 NNW 2 9 1 5 1024.7 1024.7 0.0
22/01:30am 16.1 18.0 15.8 98 0.2 CALM 0 0 0 0 1025.0 1025.0 0.0
22/01:00am 15.9 17.7 15.4 97 0.3 CALM 0 0 0 0 1025.2 1025.2 0.0
22/12:30am 16.3 18.2 15.7 96 0.4 CALM 0 0 0 0 1025.3 1025.3 0.0
22/12:00am 16.7 18.7 16.1 96 0.4 CALM 0 0 0 0 1025.2 1025.2 0.0
 
Date/Time
EST
Temp
°C
App
Temp
°C
Dew
Point
°C
Rel
Hum
%
Delta-T
°C
Wind Press
QNH
hPa
Press
MSL
hPa
Rain since
9am
mm
Dir  Spd
km/h
Gust
km/h
Spd
kts
Gust
kts
21/11:30pm 16.8 18.8 16.0 95 0.5 CALM 0 0 0 0 1025.2 1025.2 0.0
21/11:00pm 16.8 18.0 15.8 94 0.6 WSW 4 6 2 3 1025.3 1025.3 0.0
21/10:30pm 17.2 19.2 15.9 92 0.8 CALM 0 0 0 0 1025.3 1025.3 0.0
21/10:00pm 17.5 19.6 16.2 92 0.8 CALM 0 0 0 0 1025.6 1025.6 0.0
21/09:30pm 17.4 19.2 15.6 89 1.1 CALM 0 0 0 0 1025.7 1025.7 0.0
21/09:00pm 18.1 20.0 15.7 86 1.4 CALM 0 0 0 0 1025.7 1025.7 0.0
21/08:30pm 18.1 20.1 15.9 87 1.3 CALM 0 0 0 0 1025.6 1025.6 0.0
21/08:00pm 18.0 19.8 15.6 86 1.4 CALM 0 0 0 0 1025.5 1025.5 0.0
21/07:30pm 18.5 20.3 15.6 83 1.7 CALM 0 0 0 0 1025.2 1025.2 0.0
21/07:00pm 18.8 19.4 15.3 80 2.0 NE 6 9 3 5 1025.0 1025.0 0.0
21/06:30pm 19.3 18.9 15.2 77 2.4 ENE 11 15 6 8 1024.9 1024.9 0.0
21/06:00pm 20.0 19.7 15.4 75 2.7 ENE 11 17 6 9 1024.7 1024.7 0.0
21/05:30pm 20.8 19.2 15.1 70 3.4 ENE 17 20 9 11 1024.5 1024.5 0.0
21/05:00pm 22.0 21.6 15.1 65 4.1 ENE 11 19 6 10 1024.3 1024.3 0.0
21/04:30pm 22.8 22.5 14.4 59 4.9 ENE 9 11 5 6 1024.2 1024.2 0.0
21/04:00pm 23.0 22.5 13.8 56 5.3 ENE 9 11 5 6 1024.1 1024.1 0.0
21/03:30pm 23.4 23.0 14.1 56 5.5 ENE 9 13 5 7 1024.1 1024.1 0.0
21/03:00pm 23.7 23.5 13.0 51 6.1 ENE 6 11 3 6 1024.3 1024.3 0.0
21/02:30pm 24.1 23.3 13.0 50 6.4 N 9 13 5 7 1024.4 1024.4 0.0
21/02:00pm 23.9 23.6 14.3 55 5.6 NNE 9 17 5 9 1024.4 1024.4 0.0
21/01:30pm 24.3 23.5 14.1 53 6.0 N 11 20 6 11 1024.7 1024.7 0.0
21/01:00pm 24.5 23.9 14.6 54 5.9 NNE 11 20 6 11 1025.2 1025.2 0.0
21/12:30pm 23.9 23.9 15.1 58 5.3 ENE 9 13 5 7 1025.7 1025.7 0.0
21/12:00pm 23.0 21.3 14.8 60 4.8 NE 17 22 9 12 1026.1 1026.1 0.0
21/11:30am 21.9 21.9 14.3 62 4.4 E 7 11 4 6 1026.9 1026.9 0.0
21/11:00am 21.6 22.1 15.0 66 3.9 ENE 6 11 3 6 1027.7 1027.7 0.0
21/10:30am 20.3 20.5 14.2 68 3.5 NE 6 11 3 6 1028.0 1028.0 0.0
21/10:00am 18.3 18.2 13.4 73 2.8 NE 6 9 3 5 1028.3 1028.3 0.0

Other Formats:

Comma delimited format used in spreadsheet applications
http://www.bom.gov.au/fwo/IDN60801/IDN60801.95753.axf

JavaScript Object Notation format (JSON) in row-major order
http://www.bom.gov.au/fwo/IDN60801/IDN60801.95753.json